sensor_id;sensor_type;location;lat;lon;timestamp;temperature;humidity
33863;DHT22;20158;51.436;-2.742;2022-07-21T00:01:47;22.00;60.50
33863;DHT22;20158;51.436;-2.742;2022-07-21T00:04:13;22.00;60.00
33863;DHT22;20158;51.436;-2.742;2022-07-21T00:06:41;21.90;59.80
33863;DHT22;20158;51.436;-2.742;2022-07-21T00:09:08;21.90;59.80
33863;DHT22;20158;51.436;-2.742;2022-07-21T00:11:35;21.90;59.80
33863;DHT22;20158;51.436;-2.742;2022-07-21T00:14:01;21.80;59.50
33863;DHT22;20158;51.436;-2.742;2022-07-21T00:16:27;21.80;59.50
33863;DHT22;20158;51.436;-2.742;2022-07-21T00:18:53;21.80;59.50
33863;DHT22;20158;51.436;-2.742;2022-07-21T00:21:20;21.70;59.40
33863;DHT22;20158;51.436;-2.742;2022-07-21T00:23:45;21.70;59.40
33863;DHT22;20158;51.436;-2.742;2022-07-21T00:26:11;21.60;59.30
33863;DHT22;20158;51.436;-2.742;2022-07-21T00:28:37;21.60;59.30
33863;DHT22;20158;51.436;-2.742;2022-07-21T00:31:03;21.60;59.30
33863;DHT22;20158;51.436;-2.742;2022-07-21T00:33:29;21.60;59.30
33863;DHT22;20158;51.436;-2.742;2022-07-21T00:35:55;21.60;59.40
33863;DHT22;20158;51.436;-2.742;2022-07-21T00:38:21;21.60;59.40
33863;DHT22;20158;51.436;-2.742;2022-07-21T00:40:47;21.60;60.00
33863;DHT22;20158;51.436;-2.742;2022-07-21T00:43:13;21.50;59.20
33863;DHT22;20158;51.436;-2.742;2022-07-21T00:45:39;21.60;59.40
33863;DHT22;20158;51.436;-2.742;2022-07-21T00:48:05;21.50;59.20
33863;DHT22;20158;51.436;-2.742;2022-07-21T00:50:32;21.50;59.20
33863;DHT22;20158;51.436;-2.742;2022-07-21T00:52:58;21.50;59.20
33863;DHT22;20158;51.436;-2.742;2022-07-21T00:55:25;21.40;59.10
33863;DHT22;20158;51.436;-2.742;2022-07-21T00:57:52;21.40;59.70
33863;DHT22;20158;51.436;-2.742;2022-07-21T01:00:27;21.40;59.10
33863;DHT22;20158;51.436;-2.742;2022-07-21T01:02:55;21.40;59.10
33863;DHT22;20158;51.436;-2.742;2022-07-21T01:05:22;21.40;59.10
33863;DHT22;20158;51.436;-2.742;2022-07-21T01:07:51;21.40;59.10
33863;DHT22;20158;51.436;-2.742;2022-07-21T01:10:20;21.40;59.10
33863;DHT22;20158;51.436;-2.742;2022-07-21T01:12:46;21.30;58.90
33863;DHT22;20158;51.436;-2.742;2022-07-21T01:15:14;21.30;58.90
33863;DHT22;20158;51.436;-2.742;2022-07-21T01:17:41;21.30;59.00
33863;DHT22;20158;51.436;-2.742;2022-07-21T01:20:10;21.30;59.00
33863;DHT22;20158;51.436;-2.742;2022-07-21T01:22:38;21.30;59.00
33863;DHT22;20158;51.436;-2.742;2022-07-21T01:25:05;21.30;59.10
33863;DHT22;20158;51.436;-2.742;2022-07-21T01:27:31;21.30;59.10
33863;DHT22;20158;51.436;-2.742;2022-07-21T01:29:57;21.20;59.00
33863;DHT22;20158;51.436;-2.742;2022-07-21T01:32:23;21.20;59.00
33863;DHT22;20158;51.436;-2.742;2022-07-21T01:34:50;21.20;59.00
33863;DHT22;20158;51.436;-2.742;2022-07-21T01:37:23;21.20;59.10
33863;DHT22;20158;51.436;-2.742;2022-07-21T01:39:52;21.20;59.20
33863;DHT22;20158;51.436;-2.742;2022-07-21T01:42:37;21.20;59.20
33863;DHT22;20158;51.436;-2.742;2022-07-21T01:45:04;21.10;59.00
33863;DHT22;20158;51.436;-2.742;2022-07-21T01:47:30;21.10;59.00
33863;DHT22;20158;51.436;-2.742;2022-07-21T01:49:57;21.10;59.00
33863;DHT22;20158;51.436;-2.742;2022-07-21T01:52:22;21.10;59.00
33863;DHT22;20158;51.436;-2.742;2022-07-21T01:54:49;21.10;59.00
33863;DHT22;20158;51.436;-2.742;2022-07-21T01:57:15;21.10;59.10
33863;DHT22;20158;51.436;-2.742;2022-07-21T01:59:41;21.10;59.00
33863;DHT22;20158;51.436;-2.742;2022-07-21T02:02:07;21.10;59.00
33863;DHT22;20158;51.436;-2.742;2022-07-21T02:04:33;21.00;58.80
33863;DHT22;20158;51.436;-2.742;2022-07-21T02:07:00;21.00;58.80
33863;DHT22;20158;51.436;-2.742;2022-07-21T02:09:27;21.00;58.80
33863;DHT22;20158;51.436;-2.742;2022-07-21T02:11:53;21.00;58.90
33863;DHT22;20158;51.436;-2.742;2022-07-21T02:14:19;21.00;58.90
33863;DHT22;20158;51.436;-2.742;2022-07-21T02:16:45;21.00;58.90
33863;DHT22;20158;51.436;-2.742;2022-07-21T02:19:11;20.90;58.70
33863;DHT22;20158;51.436;-2.742;2022-07-21T02:21:37;20.90;58.70
33863;DHT22;20158;51.436;-2.742;2022-07-21T02:24:03;20.90;58.70
33863;DHT22;20158;51.436;-2.742;2022-07-21T02:26:29;20.90;58.70
33863;DHT22;20158;51.436;-2.742;2022-07-21T02:28:55;20.90;58.80
33863;DHT22;20158;51.436;-2.742;2022-07-21T02:31:21;20.90;58.80
33863;DHT22;20158;51.436;-2.742;2022-07-21T02:33:47;20.90;58.80
33863;DHT22;20158;51.436;-2.742;2022-07-21T02:36:13;20.90;58.80
33863;DHT22;20158;51.436;-2.742;2022-07-21T02:38:39;20.90;58.80
33863;DHT22;20158;51.436;-2.742;2022-07-21T02:41:05;20.80;58.60
33863;DHT22;20158;51.436;-2.742;2022-07-21T02:43:31;20.80;58.60
33863;DHT22;20158;51.436;-2.742;2022-07-21T02:45:57;20.80;58.60
33863;DHT22;20158;51.436;-2.742;2022-07-21T02:48:23;20.80;58.70
33863;DHT22;20158;51.436;-2.742;2022-07-21T02:50:48;20.80;58.70
33863;DHT22;20158;51.436;-2.742;2022-07-21T02:53:19;20.80;58.70
33863;DHT22;20158;51.436;-2.742;2022-07-21T02:55:49;20.70;58.60
33863;DHT22;20158;51.436;-2.742;2022-07-21T02:58:19;20.70;58.60
33863;DHT22;20158;51.436;-2.742;2022-07-21T03:00:49;20.70;58.70
33863;DHT22;20158;51.436;-2.742;2022-07-21T03:03:16;20.70;58.70
33863;DHT22;20158;51.436;-2.742;2022-07-21T03:05:42;20.70;58.70
33863;DHT22;20158;51.436;-2.742;2022-07-21T03:08:09;20.60;58.60
33863;DHT22;20158;51.436;-2.742;2022-07-21T03:10:36;20.60;58.70
33863;DHT22;20158;51.436;-2.742;2022-07-21T03:13:03;20.60;58.70
33863;DHT22;20158;51.436;-2.742;2022-07-21T03:15:29;20.60;58.70
33863;DHT22;20158;51.436;-2.742;2022-07-21T03:17:56;20.50;58.60
33863;DHT22;20158;51.436;-2.742;2022-07-21T03:20:23;20.50;58.70
33863;DHT22;20158;51.436;-2.742;2022-07-21T03:22:49;20.50;58.80
33863;DHT22;20158;51.436;-2.742;2022-07-21T03:25:15;20.50;58.90
33863;DHT22;20158;51.436;-2.742;2022-07-21T03:27:43;20.40;58.70
33863;DHT22;20158;51.436;-2.742;2022-07-21T03:30:09;20.40;58.80
33863;DHT22;20158;51.436;-2.742;2022-07-21T03:32:35;20.30;58.70
33863;DHT22;20158;51.436;-2.742;2022-07-21T03:35:02;20.40;58.90
33863;DHT22;20158;51.436;-2.742;2022-07-21T03:37:28;20.30;58.90
33863;DHT22;20158;51.436;-2.742;2022-07-21T03:39:54;20.30;59.50
33863;DHT22;20158;51.436;-2.742;2022-07-21T03:42:20;20.20;58.80
33863;DHT22;20158;51.436;-2.742;2022-07-21T03:44:47;20.20;58.90
33863;DHT22;20158;51.436;-2.742;2022-07-21T03:47:13;20.20;59.00
33863;DHT22;20158;51.436;-2.742;2022-07-21T03:49:39;20.10;58.80
33863;DHT22;20158;51.436;-2.742;2022-07-21T03:52:05;20.10;58.80
33863;DHT22;20158;51.436;-2.742;2022-07-21T03:54:31;20.10;59.00
33863;DHT22;20158;51.436;-2.742;2022-07-21T03:56:56;20.10;59.00
33863;DHT22;20158;51.436;-2.742;2022-07-21T03:59:22;20.10;59.00
33863;DHT22;20158;51.436;-2.742;2022-07-21T04:01:48;20.10;59.10
33863;DHT22;20158;51.436;-2.742;2022-07-21T04:04:14;20.00;59.00
33863;DHT22;20158;51.436;-2.742;2022-07-21T04:06:40;20.00;59.00
33863;DHT22;20158;51.436;-2.742;2022-07-21T04:09:06;20.00;59.00
33863;DHT22;20158;51.436;-2.742;2022-07-21T04:11:32;20.00;59.10
33863;DHT22;20158;51.436;-2.742;2022-07-21T04:13:58;19.90;59.00
33863;DHT22;20158;51.436;-2.742;2022-07-21T04:16:24;19.90;59.00
33863;DHT22;20158;51.436;-2.742;2022-07-21T04:18:50;19.90;59.00
33863;DHT22;20158;51.436;-2.742;2022-07-21T04:21:16;19.90;59.10
33863;DHT22;20158;51.436;-2.742;2022-07-21T04:23:42;19.90;59.20
33863;DHT22;20158;51.436;-2.742;2022-07-21T04:26:08;19.90;59.20
33863;DHT22;20158;51.436;-2.742;2022-07-21T04:28:33;19.90;59.20
33863;DHT22;20158;51.436;-2.742;2022-07-21T04:30:59;19.90;59.30
33863;DHT22;20158;51.436;-2.742;2022-07-21T04:33:25;19.80;59.10
33863;DHT22;20158;51.436;-2.742;2022-07-21T04:35:51;19.80;59.10
33863;DHT22;20158;51.436;-2.742;2022-07-21T04:38:17;19.80;59.20
33863;DHT22;20158;51.436;-2.742;2022-07-21T04:40:44;19.80;59.20
33863;DHT22;20158;51.436;-2.742;2022-07-21T04:43:10;19.80;59.20
33863;DHT22;20158;51.436;-2.742;2022-07-21T04:45:36;19.80;59.20
33863;DHT22;20158;51.436;-2.742;2022-07-21T04:48:02;19.80;59.30
33863;DHT22;20158;51.436;-2.742;2022-07-21T04:50:28;19.80;59.30
33863;DHT22;20158;51.436;-2.742;2022-07-21T04:52:55;19.80;59.30
33863;DHT22;20158;51.436;-2.742;2022-07-21T04:55:22;19.80;59.30
33863;DHT22;20158;51.436;-2.742;2022-07-21T04:57:50;19.80;59.30
33863;DHT22;20158;51.436;-2.742;2022-07-21T05:00:22;19.80;59.20
33863;DHT22;20158;51.436;-2.742;2022-07-21T05:02:49;19.80;59.20
33863;DHT22;20158;51.436;-2.742;2022-07-21T05:05:15;19.80;59.20
33863;DHT22;20158;51.436;-2.742;2022-07-21T05:07:41;19.90;59.30
33863;DHT22;20158;51.436;-2.742;2022-07-21T05:10:10;19.90;59.20
33863;DHT22;20158;51.436;-2.742;2022-07-21T05:12:36;19.90;59.10
33863;DHT22;20158;51.436;-2.742;2022-07-21T05:15:04;19.90;59.00
33863;DHT22;20158;51.436;-2.742;2022-07-21T05:17:30;20.00;59.00
33863;DHT22;20158;51.436;-2.742;2022-07-21T05:19:56;20.00;59.00
33863;DHT22;20158;51.436;-2.742;2022-07-21T05:22:22;20.00;58.80
33863;DHT22;20158;51.436;-2.742;2022-07-21T05:24:48;20.10;58.80
33863;DHT22;20158;51.436;-2.742;2022-07-21T05:27:13;20.10;58.80
33863;DHT22;20158;51.436;-2.742;2022-07-21T05:29:39;20.20;58.80
33863;DHT22;20158;51.436;-2.742;2022-07-21T05:32:05;20.20;58.70
33863;DHT22;20158;51.436;-2.742;2022-07-21T05:34:32;20.30;58.70
33863;DHT22;20158;51.436;-2.742;2022-07-21T05:36:58;20.40;58.70
33863;DHT22;20158;51.436;-2.742;2022-07-21T05:39:24;20.40;58.60
33863;DHT22;20158;51.436;-2.742;2022-07-21T05:41:50;20.50;58.50
33863;DHT22;20158;51.436;-2.742;2022-07-21T05:44:16;20.50;58.30
33863;DHT22;20158;51.436;-2.742;2022-07-21T05:46:42;20.60;58.30
33863;DHT22;20158;51.436;-2.742;2022-07-21T05:49:08;20.70;58.20
33863;DHT22;20158;51.436;-2.742;2022-07-21T05:51:34;20.80;58.20
33863;DHT22;20158;51.436;-2.742;2022-07-21T05:53:59;20.80;57.90
33863;DHT22;20158;51.436;-2.742;2022-07-21T05:56:25;20.90;57.40
33863;DHT22;20158;51.436;-2.742;2022-07-21T05:58:51;20.90;56.70
33863;DHT22;20158;51.436;-2.742;2022-07-21T06:01:17;21.00;56.40
33863;DHT22;20158;51.436;-2.742;2022-07-21T06:03:46;21.00;55.90
33863;DHT22;20158;51.436;-2.742;2022-07-21T06:06:13;21.10;55.60
33863;DHT22;20158;51.436;-2.742;2022-07-21T06:08:40;21.10;55.30
33863;DHT22;20158;51.436;-2.742;2022-07-21T06:11:07;21.20;55.40
33863;DHT22;20158;51.436;-2.742;2022-07-21T06:13:35;21.40;55.50
33863;DHT22;20158;51.436;-2.742;2022-07-21T06:16:01;21.50;55.40
33863;DHT22;20158;51.436;-2.742;2022-07-21T06:18:27;21.70;55.50
33863;DHT22;20158;51.436;-2.742;2022-07-21T06:20:53;21.90;55.50
33863;DHT22;20158;51.436;-2.742;2022-07-21T06:23:19;22.20;55.50
33863;DHT22;20158;51.436;-2.742;2022-07-21T06:25:45;22.50;55.20
33863;DHT22;20158;51.436;-2.742;2022-07-21T06:28:11;22.90;55.00
33863;DHT22;20158;51.436;-2.742;2022-07-21T06:30:37;23.30;54.60
33863;DHT22;20158;51.436;-2.742;2022-07-21T06:33:04;23.50;53.80
33863;DHT22;20158;51.436;-2.742;2022-07-21T06:35:30;23.70;53.20
33863;DHT22;20158;51.436;-2.742;2022-07-21T06:37:56;23.90;52.80
33863;DHT22;20158;51.436;-2.742;2022-07-21T06:40:22;24.10;52.50
33863;DHT22;20158;51.436;-2.742;2022-07-21T06:42:48;24.30;52.20
33863;DHT22;20158;51.436;-2.742;2022-07-21T06:45:14;24.50;52.10
33863;DHT22;20158;51.436;-2.742;2022-07-21T06:47:40;24.60;51.80
33863;DHT22;20158;51.436;-2.742;2022-07-21T06:50:08;24.70;51.50
33863;DHT22;20158;51.436;-2.742;2022-07-21T06:52:35;24.90;51.30
33863;DHT22;20158;51.436;-2.742;2022-07-21T06:55:02;25.10;51.00
33863;DHT22;20158;51.436;-2.742;2022-07-21T06:57:28;25.40;50.70
33863;DHT22;20158;51.436;-2.742;2022-07-21T06:59:54;25.70;50.30
33863;DHT22;20158;51.436;-2.742;2022-07-21T07:02:20;26.10;49.90
33863;DHT22;20158;51.436;-2.742;2022-07-21T07:04:45;26.60;49.50
33863;DHT22;20158;51.436;-2.742;2022-07-21T07:07:12;27.00;49.00
33863;DHT22;20158;51.436;-2.742;2022-07-21T07:09:38;27.40;48.50
33863;DHT22;20158;51.436;-2.742;2022-07-21T07:12:04;27.90;48.00
33863;DHT22;20158;51.436;-2.742;2022-07-21T07:14:33;28.30;47.60
33863;DHT22;20158;51.436;-2.742;2022-07-21T07:17:00;28.70;47.10
33863;DHT22;20158;51.436;-2.742;2022-07-21T07:19:26;29.10;46.50
33863;DHT22;20158;51.436;-2.742;2022-07-21T07:21:53;29.50;46.00
33863;DHT22;20158;51.436;-2.742;2022-07-21T07:24:19;30.00;45.30
33863;DHT22;20158;51.436;-2.742;2022-07-21T07:26:45;30.40;44.60
33863;DHT22;20158;51.436;-2.742;2022-07-21T07:29:11;30.80;44.10
33863;DHT22;20158;51.436;-2.742;2022-07-21T07:31:37;31.20;43.80
33863;DHT22;20158;51.436;-2.742;2022-07-21T07:34:03;31.50;43.40
33863;DHT22;20158;51.436;-2.742;2022-07-21T07:36:30;31.70;43.00
33863;DHT22;20158;51.436;-2.742;2022-07-21T07:38:56;31.70;42.90
33863;DHT22;20158;51.436;-2.742;2022-07-21T07:41:25;31.70;43.00
33863;DHT22;20158;51.436;-2.742;2022-07-21T07:43:51;31.60;43.10
33863;DHT22;20158;51.436;-2.742;2022-07-21T07:46:18;31.50;43.20
33863;DHT22;20158;51.436;-2.742;2022-07-21T07:48:44;31.60;43.20
33863;DHT22;20158;51.436;-2.742;2022-07-21T07:51:11;31.90;42.80
33863;DHT22;20158;51.436;-2.742;2022-07-21T07:53:38;32.30;42.10
33863;DHT22;20158;51.436;-2.742;2022-07-21T07:56:05;32.80;41.30
33863;DHT22;20158;51.436;-2.742;2022-07-21T07:58:31;33.20;40.60
33863;DHT22;20158;51.436;-2.742;2022-07-21T08:00:57;33.40;40.20
33863;DHT22;20158;51.436;-2.742;2022-07-21T08:03:24;33.60;40.00
33863;DHT22;20158;51.436;-2.742;2022-07-21T08:05:51;33.60;40.00
33863;DHT22;20158;51.436;-2.742;2022-07-21T08:08:17;33.60;40.10
33863;DHT22;20158;51.436;-2.742;2022-07-21T08:10:44;33.50;40.10
33863;DHT22;20158;51.436;-2.742;2022-07-21T08:13:20;33.40;40.10
33863;DHT22;20158;51.436;-2.742;2022-07-21T08:15:47;33.30;40.00
33863;DHT22;20158;51.436;-2.742;2022-07-21T08:18:14;33.30;40.20
33863;DHT22;20158;51.436;-2.742;2022-07-21T08:20:41;33.20;40.30
33863;DHT22;20158;51.436;-2.742;2022-07-21T08:23:07;33.00;40.40
33863;DHT22;20158;51.436;-2.742;2022-07-21T08:25:34;32.90;40.40
33863;DHT22;20158;51.436;-2.742;2022-07-21T08:27:59;32.80;40.30
33863;DHT22;20158;51.436;-2.742;2022-07-21T08:30:25;32.70;40.40
33863;DHT22;20158;51.436;-2.742;2022-07-21T08:32:51;32.50;40.40
33863;DHT22;20158;51.436;-2.742;2022-07-21T08:35:17;32.40;40.30
33863;DHT22;20158;51.436;-2.742;2022-07-21T08:37:59;32.30;40.40
33863;DHT22;20158;51.436;-2.742;2022-07-21T08:40:27;32.10;40.10
33863;DHT22;20158;51.436;-2.742;2022-07-21T08:42:54;32.10;40.30
33863;DHT22;20158;51.436;-2.742;2022-07-21T08:45:21;32.00;40.20
33863;DHT22;20158;51.436;-2.742;2022-07-21T08:47:52;32.00;40.10
33863;DHT22;20158;51.436;-2.742;2022-07-21T08:50:19;31.90;40.00
33863;DHT22;20158;51.436;-2.742;2022-07-21T08:52:47;31.90;40.00
33863;DHT22;20158;51.436;-2.742;2022-07-21T08:55:13;31.80;40.00
33863;DHT22;20158;51.436;-2.742;2022-07-21T08:57:40;31.80;39.90
33863;DHT22;20158;51.436;-2.742;2022-07-21T09:00:07;31.80;40.00
33863;DHT22;20158;51.436;-2.742;2022-07-21T09:02:35;31.80;40.00
33863;DHT22;20158;51.436;-2.742;2022-07-21T09:05:02;31.70;39.70
33863;DHT22;20158;51.436;-2.742;2022-07-21T09:07:52;31.70;39.80
33863;DHT22;20158;51.436;-2.742;2022-07-21T09:10:25;31.60;39.80
33863;DHT22;20158;51.436;-2.742;2022-07-21T09:12:57;31.50;40.10
33863;DHT22;20158;51.436;-2.742;2022-07-21T09:15:25;31.50;40.10
33863;DHT22;20158;51.436;-2.742;2022-07-21T09:18:11;31.50;40.20
33863;DHT22;20158;51.436;-2.742;2022-07-21T09:20:38;31.50;40.00
33863;DHT22;20158;51.436;-2.742;2022-07-21T09:23:08;31.50;40.10
33863;DHT22;20158;51.436;-2.742;2022-07-21T09:33:31;32.20;39.40
33863;DHT22;20158;51.436;-2.742;2022-07-21T09:36:17;32.40;39.00
33863;DHT22;20158;51.436;-2.742;2022-07-21T09:41:13;32.60;38.80
33863;DHT22;20158;51.436;-2.742;2022-07-21T09:43:44;32.60;38.70
33863;DHT22;20158;51.436;-2.742;2022-07-21T09:46:16;32.70;38.60
33863;DHT22;20158;51.436;-2.742;2022-07-21T09:48:45;32.80;38.60
33863;DHT22;20158;51.436;-2.742;2022-07-21T09:51:30;32.80;38.50
33863;DHT22;20158;51.436;-2.742;2022-07-21T09:54:05;32.80;38.40
33863;DHT22;20158;51.436;-2.742;2022-07-21T09:56:36;32.80;38.50
33863;DHT22;20158;51.436;-2.742;2022-07-21T09:59:04;32.70;38.50
33863;DHT22;20158;51.436;-2.742;2022-07-21T10:01:30;32.80;38.60
33863;DHT22;20158;51.436;-2.742;2022-07-21T10:03:58;32.80;38.40
33863;DHT22;20158;51.436;-2.742;2022-07-21T10:06:33;32.80;38.30
33863;DHT22;20158;51.436;-2.742;2022-07-21T10:09:02;32.90;38.30
33863;DHT22;20158;51.436;-2.742;2022-07-21T10:11:29;32.90;38.20
33863;DHT22;20158;51.436;-2.742;2022-07-21T10:13:55;32.90;38.20
33863;DHT22;20158;51.436;-2.742;2022-07-21T10:16:21;32.90;38.20
33863;DHT22;20158;51.436;-2.742;2022-07-21T10:21:39;33.00;38.10
33863;DHT22;20158;51.436;-2.742;2022-07-21T10:24:10;33.00;37.90
33863;DHT22;20158;51.436;-2.742;2022-07-21T10:26:38;33.00;38.00
33863;DHT22;20158;51.436;-2.742;2022-07-21T10:29:04;33.00;37.60
33863;DHT22;20158;51.436;-2.742;2022-07-21T10:31:30;32.80;37.30
33863;DHT22;20158;51.436;-2.742;2022-07-21T10:34:00;32.40;37.10
33863;DHT22;20158;51.436;-2.742;2022-07-21T10:41:41;31.20;37.50
33863;DHT22;20158;51.436;-2.742;2022-07-21T10:47:21;30.40;38.20
33863;DHT22;20158;51.436;-2.742;2022-07-21T10:49:54;30.20;38.40
33863;DHT22;20158;51.436;-2.742;2022-07-21T10:55:22;29.80;38.80
33863;DHT22;20158;51.436;-2.742;2022-07-21T11:03:36;29.60;39.10
33863;DHT22;20158;51.436;-2.742;2022-07-21T11:08:36;29.50;39.40
33863;DHT22;20158;51.436;-2.742;2022-07-21T11:11:09;29.50;39.30
33863;DHT22;20158;51.436;-2.742;2022-07-21T11:14:02;29.40;39.40
33863;DHT22;20158;51.436;-2.742;2022-07-21T11:22:24;28.90;40.10
33863;DHT22;20158;51.436;-2.742;2022-07-21T11:24:52;28.90;40.40
33863;DHT22;20158;51.436;-2.742;2022-07-21T11:27:27;28.80;40.60
33863;DHT22;20158;51.436;-2.742;2022-07-21T11:29:55;28.70;40.70
33863;DHT22;20158;51.436;-2.742;2022-07-21T11:32:22;28.70;40.80
33863;DHT22;20158;51.436;-2.742;2022-07-21T11:34:51;28.80;41.40
33863;DHT22;20158;51.436;-2.742;2022-07-21T11:37:41;28.90;40.70
33863;DHT22;20158;51.436;-2.742;2022-07-21T11:40:10;29.00;40.70
33863;DHT22;20158;51.436;-2.742;2022-07-21T11:42:41;29.00;40.80
33863;DHT22;20158;51.436;-2.742;2022-07-21T11:45:08;29.00;41.50
33863;DHT22;20158;51.436;-2.742;2022-07-21T11:47:34;29.10;40.70
33863;DHT22;20158;51.436;-2.742;2022-07-21T11:50:03;29.20;40.70
33863;DHT22;20158;51.436;-2.742;2022-07-21T11:52:34;29.20;40.60
33863;DHT22;20158;51.436;-2.742;2022-07-21T11:55:04;29.20;40.60
33863;DHT22;20158;51.436;-2.742;2022-07-21T11:57:30;29.20;41.30
33863;DHT22;20158;51.436;-2.742;2022-07-21T11:59:58;29.10;40.70
33863;DHT22;20158;51.436;-2.742;2022-07-21T12:02:29;29.00;40.70
33863;DHT22;20158;51.436;-2.742;2022-07-21T12:05:02;28.90;40.90
33863;DHT22;20158;51.436;-2.742;2022-07-21T12:07:32;28.80;40.90
33863;DHT22;20158;51.436;-2.742;2022-07-21T12:10:01;28.70;40.80
33863;DHT22;20158;51.436;-2.742;2022-07-21T12:12:39;28.70;40.90
33863;DHT22;20158;51.436;-2.742;2022-07-21T12:15:21;28.70;41.00
33863;DHT22;20158;51.436;-2.742;2022-07-21T12:18:18;28.70;41.00
33863;DHT22;20158;51.436;-2.742;2022-07-21T12:20:45;28.70;40.90
33863;DHT22;20158;51.436;-2.742;2022-07-21T12:23:28;28.90;41.00
33863;DHT22;20158;51.436;-2.742;2022-07-21T12:25:56;29.00;40.80
33863;DHT22;20158;51.436;-2.742;2022-07-21T12:28:45;29.20;40.80
33863;DHT22;20158;51.436;-2.742;2022-07-21T12:31:14;29.40;40.50
33863;DHT22;20158;51.436;-2.742;2022-07-21T12:33:42;29.50;40.40
33863;DHT22;20158;51.436;-2.742;2022-07-21T12:36:09;29.60;40.20
33863;DHT22;20158;51.436;-2.742;2022-07-21T12:38:45;29.80;40.20
33863;DHT22;20158;51.436;-2.742;2022-07-21T12:41:16;30.00;39.90
33863;DHT22;20158;51.436;-2.742;2022-07-21T12:43:52;30.20;39.70
33863;DHT22;20158;51.436;-2.742;2022-07-21T12:46:18;30.40;39.60
33863;DHT22;20158;51.436;-2.742;2022-07-21T12:48:45;30.50;39.30
33863;DHT22;20158;51.436;-2.742;2022-07-21T12:51:15;30.60;39.20
33863;DHT22;20158;51.436;-2.742;2022-07-21T12:53:51;30.80;39.00
33863;DHT22;20158;51.436;-2.742;2022-07-21T12:56:19;31.00;38.90
33863;DHT22;20158;51.436;-2.742;2022-07-21T12:58:46;31.10;38.80
33863;DHT22;20158;51.436;-2.742;2022-07-21T13:01:14;31.10;38.90
33863;DHT22;20158;51.436;-2.742;2022-07-21T13:03:40;31.10;39.40
33863;DHT22;20158;51.436;-2.742;2022-07-21T13:06:06;31.10;38.70
33863;DHT22;20158;51.436;-2.742;2022-07-21T13:08:33;31.00;38.80
33863;DHT22;20158;51.436;-2.742;2022-07-21T13:11:00;30.80;39.60
33863;DHT22;20158;51.436;-2.742;2022-07-21T13:13:26;30.60;39.10
33863;DHT22;20158;51.436;-2.742;2022-07-21T13:15:53;30.40;39.30
33863;DHT22;20158;51.436;-2.742;2022-07-21T13:18:19;30.20;39.50
33863;DHT22;20158;51.436;-2.742;2022-07-21T13:20:45;30.00;39.70
33863;DHT22;20158;51.436;-2.742;2022-07-21T13:23:11;29.80;40.00
33863;DHT22;20158;51.436;-2.742;2022-07-21T13:25:37;29.70;40.10
33863;DHT22;20158;51.436;-2.742;2022-07-21T13:28:03;29.60;40.30
33863;DHT22;20158;51.436;-2.742;2022-07-21T13:30:29;29.50;40.40
33863;DHT22;20158;51.436;-2.742;2022-07-21T13:32:55;29.40;40.50
33863;DHT22;20158;51.436;-2.742;2022-07-21T13:35:21;29.40;40.50
33863;DHT22;20158;51.436;-2.742;2022-07-21T13:37:47;29.30;40.60
33863;DHT22;20158;51.436;-2.742;2022-07-21T13:40:13;29.20;40.70
33863;DHT22;20158;51.436;-2.742;2022-07-21T13:42:39;29.20;40.70
33863;DHT22;20158;51.436;-2.742;2022-07-21T13:45:05;29.20;40.90
33863;DHT22;20158;51.436;-2.742;2022-07-21T13:47:33;29.10;41.00
33863;DHT22;20158;51.436;-2.742;2022-07-21T13:49:59;29.10;41.10
33863;DHT22;20158;51.436;-2.742;2022-07-21T13:52:25;29.00;41.10
33863;DHT22;20158;51.436;-2.742;2022-07-21T13:54:51;29.00;41.30
33863;DHT22;20158;51.436;-2.742;2022-07-21T13:57:17;28.90;41.30
33863;DHT22;20158;51.436;-2.742;2022-07-21T13:59:43;28.70;41.40
33863;DHT22;20158;51.436;-2.742;2022-07-21T14:02:09;28.60;41.60
33863;DHT22;20158;51.436;-2.742;2022-07-21T14:04:35;28.50;41.80
33863;DHT22;20158;51.436;-2.742;2022-07-21T14:07:01;28.40;42.00
33863;DHT22;20158;51.436;-2.742;2022-07-21T14:09:28;28.20;42.10
33863;DHT22;20158;51.436;-2.742;2022-07-21T14:11:54;28.10;42.30
33863;DHT22;20158;51.436;-2.742;2022-07-21T14:14:21;28.00;42.60
33863;DHT22;20158;51.436;-2.742;2022-07-21T14:16:49;27.90;42.80
33863;DHT22;20158;51.436;-2.742;2022-07-21T14:19:16;27.90;42.90
33863;DHT22;20158;51.436;-2.742;2022-07-21T14:21:41;27.90;43.00
33863;DHT22;20158;51.436;-2.742;2022-07-21T14:24:07;27.90;43.10
33863;DHT22;20158;51.436;-2.742;2022-07-21T14:26:53;27.90;43.10
33863;DHT22;20158;51.436;-2.742;2022-07-21T14:29:19;27.90;43.10
33863;DHT22;20158;51.436;-2.742;2022-07-21T14:31:45;27.90;43.20
33863;DHT22;20158;51.436;-2.742;2022-07-21T14:34:11;27.90;43.30
33863;DHT22;20158;51.436;-2.742;2022-07-21T14:36:37;27.90;43.40
33863;DHT22;20158;51.436;-2.742;2022-07-21T14:39:03;27.90;43.50
33863;DHT22;20158;51.436;-2.742;2022-07-21T14:41:29;28.00;43.70
33863;DHT22;20158;51.436;-2.742;2022-07-21T14:43:55;28.00;43.70
33863;DHT22;20158;51.436;-2.742;2022-07-21T14:46:20;28.00;43.80
33863;DHT22;20158;51.436;-2.742;2022-07-21T14:48:46;27.90;43.90
33863;DHT22;20158;51.436;-2.742;2022-07-21T14:51:12;27.80;43.90
33863;DHT22;20158;51.436;-2.742;2022-07-21T14:53:38;27.80;44.10
33863;DHT22;20158;51.436;-2.742;2022-07-21T14:56:04;27.70;44.20
33863;DHT22;20158;51.436;-2.742;2022-07-21T14:58:30;27.60;44.30
33863;DHT22;20158;51.436;-2.742;2022-07-21T15:00:56;27.50;44.60
33863;DHT22;20158;51.436;-2.742;2022-07-21T15:03:22;27.50;44.80
33863;DHT22;20158;51.436;-2.742;2022-07-21T15:05:48;27.50;44.90
33863;DHT22;20158;51.436;-2.742;2022-07-21T15:08:14;27.50;45.70
33863;DHT22;20158;51.436;-2.742;2022-07-21T15:10:41;27.60;45.10
33863;DHT22;20158;51.436;-2.742;2022-07-21T15:13:07;27.70;45.20
33863;DHT22;20158;51.436;-2.742;2022-07-21T15:15:33;27.80;45.10
33863;DHT22;20158;51.436;-2.742;2022-07-21T15:18:01;27.80;45.10
33863;DHT22;20158;51.436;-2.742;2022-07-21T15:20:26;27.90;45.10
33863;DHT22;20158;51.436;-2.742;2022-07-21T15:22:52;27.90;45.20
33863;DHT22;20158;51.436;-2.742;2022-07-21T15:25:18;27.90;45.20
33863;DHT22;20158;51.436;-2.742;2022-07-21T15:27:44;27.90;45.40
33863;DHT22;20158;51.436;-2.742;2022-07-21T15:30:12;27.80;45.40
33863;DHT22;20158;51.436;-2.742;2022-07-21T15:32:39;27.80;45.50
33863;DHT22;20158;51.436;-2.742;2022-07-21T15:35:07;27.80;45.60
33863;DHT22;20158;51.436;-2.742;2022-07-21T15:37:33;27.70;45.60
33863;DHT22;20158;51.436;-2.742;2022-07-21T15:39:59;27.60;45.70
33863;DHT22;20158;51.436;-2.742;2022-07-21T15:42:25;27.50;45.80
33863;DHT22;20158;51.436;-2.742;2022-07-21T15:44:53;27.50;45.90
33863;DHT22;20158;51.436;-2.742;2022-07-21T15:47:19;27.40;46.00
33863;DHT22;20158;51.436;-2.742;2022-07-21T15:49:45;27.40;46.20
33863;DHT22;20158;51.436;-2.742;2022-07-21T15:52:12;27.30;46.30
33863;DHT22;20158;51.436;-2.742;2022-07-21T15:54:38;27.20;46.40
33863;DHT22;20158;51.436;-2.742;2022-07-21T15:57:04;27.20;46.60